Tur — UVYQ — position and weather

sailwx.info

Track history (hours):
 
Tides and Currents Weather Stations Pressure Air Temp Water Temp Dewpoint Dewpoint Depression Visibility Wind Speed Wind Dir Waves Ship Positions

Tur

Last reported at 2014-Oct-01 17:33 UTC. Time now 2014-Oct-01 18:29 UTC.
Position N 46°51' E 031°59'.

Length 35 m.

Type: Tug. MMSI: 272064600.

Date/timePositionNaut miles runAvg speedWind from/ knotsBaromVisibWave heightAir tempDewpointWater temp
2014-Oct-01 17:33N 46°51' E 031°59'0 0.0
2014-Oct-01 16:32N 46°51' E 031°59'0 0.0
2014-Oct-01 15:32N 46°51' E 031°59'0 0.0
2014-Oct-01 14:32N 46°51' E 031°59'0 0.0
2014-Oct-01 13:32N 46°51' E 031°59'0 0.0
2014-Oct-01 12:32N 46°51' E 031°59'0 0.0
2014-Oct-01 11:32N 46°51' E 031°59'1 1.3
2014-Oct-01 10:33N 46°50' E 031°57'1 1.3
2014-Oct-01 09:33N 46°51' E 031°59'0 0.0
2014-Oct-01 08:33N 46°51' E 031°59'0 0.0
2014-Oct-01 07:33N 46°51' E 031°59'0 0.0
2014-Oct-01 06:33N 46°51' E 031°59'0 0.0
2014-Oct-01 05:33N 46°51' E 031°59'2 1.8
2014-Oct-01 04:33N 46°50' E 031°57'0 0.5
2014-Oct-01 03:33N 46°50' E 031°57'1 1.3
2014-Oct-01 02:33N 46°51' E 031°59'0 0.0
2014-Oct-01 01:33N 46°51' E 031°59'0 0.0
2014-Oct-01 00:33N 46°51' E 031°59'0 0.0
2014-Sep-30 23:33N 46°51' E 031°59'0 0.0
2014-Sep-30 22:33N 46°51' E 031°59'0 0.0
2014-Sep-30 21:33N 46°51' E 031°59'0 0.0
2014-Sep-30 20:33N 46°51' E 031°59'0 0.0
2014-Sep-30 19:33N 46°51' E 031°59'0 0.0
2014-Sep-30 18:33N 46°51' E 031°59'0 0.0
2014-Sep-30 17:30N 46°51' E 031°59'0 0.0
2014-Sep-30 16:33N 46°51' E 031°59'0 0.0
2014-Sep-30 15:33N 46°51' E 031°59'0 0.0
2014-Sep-30 14:33N 46°51' E 031°59'0 0.0
2014-Sep-30 13:33N 46°51' E 031°59'2 1.6
2014-Sep-30 12:33N 46°51' E 031°57'0 0.1
2014-Sep-30 11:33N 46°50' E 031°56'2 1.7
2014-Sep-30 10:32N 46°51' E 031°59'0 0.0
2014-Sep-30 09:32N 46°51' E 031°59'0 0.0
2014-Sep-30 08:32N 46°51' E 031°59'0 0.0
2014-Sep-30 07:29N 46°51' E 031°59'0 0.0
2014-Sep-30 06:32N 46°51' E 031°59'0 0.2
2014-Sep-30 04:31N 46°51' E 031°59'0 0.0
2014-Sep-30 03:31N 46°51' E 031°59'0 0.0
2014-Sep-30 02:28N 46°51' E 031°59'0 0.0
2014-Sep-30 01:31N 46°51' E 031°59'0 0.0
2014-Sep-30 00:31N 46°51' E 031°59'0 0.0
2014-Sep-29 23:31N 46°51' E 031°59'0 0.0
2014-Sep-29 22:31N 46°51' E 031°59'0 0.0
2014-Sep-29 21:31N 46°51' E 031°59'0 0.0
2014-Sep-29 20:31N 46°51' E 031°59'0 0.2
2014-Sep-29 19:33N 46°51' E 031°59'0 0.2
2014-Sep-29 18:32N 46°51' E 031°59'0 0.0
2014-Sep-29 17:32N 46°51' E 031°59'0 0.0
2014-Sep-29 16:32N 46°51' E 031°59'0 0.0
2014-Sep-29 15:32N 46°51' E 031°59'0 0.4
2014-Sep-29 14:32N 46°51' E 031°59'0 0.0
2014-Sep-29 13:32N 46°51' E 031°59'0 0.0
2014-Sep-29 12:32N 46°51' E 031°59'0 0.0
2014-Sep-29 11:32N 46°51' E 031°59'0 0.0
2014-Sep-29 10:32N 46°51' E 031°59'0 0.0
2014-Sep-29 09:32N 46°51' E 031°59'0 0.0
2014-Sep-29 08:29N 46°51' E 031°59'0 0.0
2014-Sep-29 07:32N 46°51' E 031°59'0 0.0
2014-Sep-29 06:32N 46°51' E 031°59'0 0.0
2014-Sep-29 05:32N 46°51' E 031°59'0 0.0
2014-Sep-29 04:32N 46°51' E 031°59'0 0.0
2014-Sep-29 03:32N 46°51' E 031°59'0 0.0
2014-Sep-29 02:32N 46°51' E 031°59'0 0.0
2014-Sep-29 01:32N 46°51' E 031°59'0 0.0
2014-Sep-29 00:32N 46°51' E 031°59'0 0.0
2014-Sep-28 23:32N 46°51' E 031°59'0 0.0
2014-Sep-28 22:32N 46°51' E 031°59'0 0.0
2014-Sep-28 21:32N 46°51' E 031°59'0 0.0
2014-Sep-28 20:29N 46°51' E 031°59'0 0.0
2014-Sep-28 19:32N 46°51' E 031°59'0 0.0
2014-Sep-28 18:32N 46°51' E 031°59'0 0.0
2014-Sep-28 17:32N 46°51' E 031°59'0 0.0
2014-Sep-28 16:32N 46°51' E 031°59'0 0.0
2014-Sep-28 15:32N 46°51' E 031°59'0 0.0
2014-Sep-28 14:33N 46°51' E 031°59'1 1.3
2014-Sep-28 13:32N 46°50' E 031°57'1 1.0
2014-Sep-28 12:30N 46°50' E 031°56'1 0.9
2014-Sep-28 11:33N 46°50' E 031°57'1 1.2
2014-Sep-28 10:31N 46°51' E 031°59'0 0.0
2014-Sep-28 09:31N 46°51' E 031°59'0 0.0
2014-Sep-28 08:31N 46°51' E 031°59'0 0.0
2014-Sep-28 07:31N 46°51' E 031°59'0 0.0
2014-Sep-28 06:31N 46°51' E 031°59'0 0.0
2014-Sep-28 05:31N 46°51' E 031°59'0 0.0
2014-Sep-28 04:28N 46°51' E 031°59'0 0.0
2014-Sep-28 03:31N 46°51' E 031°59'0 0.0
2014-Sep-28 02:31N 46°51' E 031°59'0 0.0
2014-Sep-28 01:31N 46°51' E 031°59'0 0.0
2014-Sep-28 00:31N 46°51' E 031°59'0 0.0
2014-Sep-27 23:28N 46°51' E 031°59'0 0.0
2014-Sep-27 22:31N 46°51' E 031°59'0 0.0
2014-Sep-27 21:31N 46°51' E 031°59'0 0.0
2014-Sep-27 20:31N 46°51' E 031°59'0 0.3
2014-Sep-27 19:33N 46°51' E 031°59'0 0.3
2014-Sep-27 18:32N 46°51' E 031°59'0 0.0
2014-Sep-27 17:32N 46°51' E 031°59'0 0.0
2014-Sep-27 16:32N 46°51' E 031°59'0 0.0
2014-Sep-27 15:32N 46°51' E 031°59'0 0.0
2014-Sep-27 14:32N 46°51' E 031°59'0 0.0
2014-Sep-27 13:32N 46°51' E 031°59'0 0.0
2014-Sep-27 12:32N 46°51' E 031°59'0 0.0
2014-Sep-27 11:32N 46°51' E 031°59'0 0.0
2014-Sep-27 10:32N 46°51' E 031°59'0 0.0
2014-Sep-27 09:32N 46°51' E 031°59'0 0.0
2014-Sep-27 08:32N 46°51' E 031°59'0 0.0
2014-Sep-27 07:32N 46°51' E 031°59'0 0.0
2014-Sep-27 06:32N 46°51' E 031°59'0 0.1
2014-Sep-27 05:33N 46°51' E 031°59'0 0.1
2014-Sep-27 04:33N 46°51' E 031°59'0 0.0
2014-Sep-27 03:33N 46°51' E 031°59'0 0.0
2014-Sep-27 02:33N 46°51' E 031°59'0 0.0
2014-Sep-27 01:33N 46°51' E 031°59'0 0.0
2014-Sep-27 00:33N 46°51' E 031°59'0 0.0
2014-Sep-26 23:33N 46°51' E 031°59'0 0.0
2014-Sep-26 22:33N 46°51' E 031°59'0 0.0
2014-Sep-26 21:33N 46°51' E 031°59'0 0.0
2014-Sep-26 20:33N 46°51' E 031°59'0 0.0
2014-Sep-26 19:33N 46°51' E 031°59'0 0.0
2014-Sep-26 18:33N 46°51' E 031°59'0 0.0
2014-Sep-26 16:33N 46°51' E 031°59'0 0.0
2014-Sep-26 15:33N 46°51' E 031°59'0 0.0
2014-Sep-26 14:33N 46°51' E 031°59'0 0.0
2014-Sep-26 13:33N 46°51' E 031°59'1 0.6
2014-Sep-26 12:33N 46°51' E 031°58'1 0.6
2014-Sep-26 11:33N 46°51' E 031°59'0 0.0
2014-Sep-26 10:33N 46°51' E 031°59'0 0.0
2014-Sep-26 09:33N 46°51' E 031°59'0 0.0
2014-Sep-26 08:33N 46°51' E 031°59'0 0.0
2014-Sep-26 07:33N 46°51' E 031°59'0 0.0
2014-Sep-26 06:31N 46°51' E 031°59'0 0.0
2014-Sep-26 05:31N 46°51' E 031°59'0 0.0
2014-Sep-26 04:31N 46°51' E 031°59'0 0.0
2014-Sep-26 03:25N 46°51' E 031°59'0 0.0
2014-Sep-26 02:31N 46°51' E 031°59'0 0.0
2014-Sep-26 01:31N 46°51' E 031°59'0 0.0
2014-Sep-26 00:31N 46°51' E 031°59'0 0.0
2014-Sep-25 23:31N 46°51' E 031°59'0 0.0
2014-Sep-25 22:31N 46°51' E 031°59'0 0.0
2014-Sep-25 21:31N 46°51' E 031°59'0 0.0
2014-Sep-25 20:28N 46°51' E 031°59'0 0.0
2014-Sep-25 19:31N 46°51' E 031°59'0 0.0
2014-Sep-25 18:31N 46°51' E 031°59'0 0.0
2014-Sep-25 17:31N 46°51' E 031°59'0 0.0
2014-Sep-25 16:31N 46°51' E 031°59'0 0.0
2014-Sep-25 15:31N 46°51' E 031°59'0 0.0
2014-Sep-25 14:31N 46°51' E 031°59'0 0.0
2014-Sep-25 13:28N 46°51' E 031°59'0 0.0
2014-Sep-25 12:31N 46°51' E 031°59'0 0.1
2014-Sep-25 11:29N 46°51' E 031°59'0 0.1
2014-Sep-25 10:33N 46°51' E 031°59'0 0.0
2014-Sep-25 09:31N 46°51' E 031°59'0 0.0
2014-Sep-25 08:33N 46°51' E 031°59'0 0.0
2014-Sep-25 07:34N 46°51' E 031°59'0 0.0
2014-Sep-25 06:34N 46°51' E 031°59'0 0.0
2014-Sep-25 05:34N 46°51' E 031°59'0 0.0
2014-Sep-25 04:34N 46°51' E 031°59'0 0.0
2014-Sep-25 03:34N 46°51' E 031°59'0 0.0
2014-Sep-25 02:34N 46°51' E 031°59'0 0.0
2014-Sep-25 01:31N 46°51' E 031°59'0 0.0
2014-Sep-25 00:31N 46°51' E 031°59'0 0.0
2014-Sep-24 23:31N 46°51' E 031°59'0 0.0
2014-Sep-24 22:31N 46°51' E 031°59'0 0.0
2014-Sep-24 21:31N 46°51' E 031°59'0 0.0
2014-Sep-24 20:31N 46°51' E 031°59'0 0.0
2014-Sep-24 19:31N 46°51' E 031°59'0 0.0
2014-Sep-24 18:31N 46°51' E 031°59'0 0.0
2014-Sep-24 17:31N 46°51' E 031°59'0 0.0
2014-Sep-24 16:31N 46°51' E 031°59'0 0.0
2014-Sep-24 15:31N 46°51' E 031°59'0 0.0
2014-Sep-24 14:31N 46°51' E 031°59'0 0.0
2014-Sep-24 13:31N 46°51' E 031°59'0 0.0
2014-Sep-24 12:31N 46°51' E 031°59'0 0.0
2014-Sep-24 11:31N 46°51' E 031°59'0 0.0
2014-Sep-24 10:31N 46°51' E 031°59'0 0.0
2014-Sep-24 09:31N 46°51' E 031°59'0 0.0
2014-Sep-24 08:31N 46°51' E 031°59'0 0.0
2014-Sep-24 07:31N 46°51' E 031°59'0 0.0
2014-Sep-24 06:31N 46°51' E 031°59'0 0.0
2014-Sep-24 05:31N 46°51' E 031°59'0 0.0
2014-Sep-24 04:31N 46°51' E 031°59'0 0.0
2014-Sep-24 03:31N 46°51' E 031°59'0 0.0
2014-Sep-24 02:31N 46°51' E 031°59'0 0.0
2014-Sep-24 01:28N 46°51' E 031°59'0 0.0
2014-Sep-24 00:31N 46°51' E 031°59'0 0.0
2014-Sep-23 23:31N 46°51' E 031°59'0 0.0
2014-Sep-23 22:31N 46°51' E 031°59'0 0.0
2014-Sep-23 21:31N 46°51' E 031°59'0 0.0
2014-Sep-23 20:31N 46°51' E 031°59'0 0.0
2014-Sep-23 19:31N 46°51' E 031°59'0 0.0
2014-Sep-23 18:31N 46°51' E 031°59'0 0.0
2014-Sep-23 17:31N 46°51' E 031°59'0 0.0
2014-Sep-23 16:31N 46°51' E 031°59'2 1.9
2014-Sep-23 15:33N 46°50' E 031°56'0 0.2
2014-Sep-23 14:18N 46°50' E 031°56'2 2.8
2014-Sep-23 13:33N 46°51' E 031°59'0 0.1
2014-Sep-23 12:31N 46°51' E 031°59'0 0.0
2014-Sep-23 11:28N 46°51' E 031°59'1 0.9
2014-Sep-23 10:33N 46°51' E 031°58'1 1.0
2014-Sep-23 09:33N 46°50' E 031°57'1 1.1
2014-Sep-23 08:33N 46°51' E 031°59'0 0.0
2014-Sep-23 07:33N 46°51' E 031°59'0 0.0
2014-Sep-23 06:33N 46°51' E 031°59'0 0.0
2014-Sep-23 05:33N 46°51' E 031°59'0 0.0
2014-Sep-23 04:33N 46°51' E 031°59'0 0.0
2014-Sep-23 03:33N 46°51' E 031°59'0 0.0
2014-Sep-23 02:33N 46°51' E 031°59'0 0.0
2014-Sep-22 13:21N 46°51' E 031°59'0 0.0
2014-Sep-22 12:33N 46°51' E 031°59'0 0.0
2014-Sep-22 11:33N 46°51' E 031°59'0 0.0
2014-Sep-22 10:33N 46°51' E 031°59'0 0.0
2014-Sep-22 09:33N 46°51' E 031°59'0 0.0
2014-Sep-22 08:33N 46°51' E 031°59'0 0.0
2014-Sep-22 07:33N 46°51' E 031°59'0 0.0
2014-Sep-22 06:31N 46°51' E 031°59'1 1.4
2014-Sep-22 05:33N 46°50' E 031°57'1 0.8
2014-Sep-22 04:33N 46°51' E 031°57'1 0.9
2014-Sep-22 03:32N 46°51' E 031°59'0 0.0
2014-Sep-22 02:32N 46°51' E 031°59'0 0.0
2014-Sep-22 01:32N 46°51' E 031°59'0 0.0
2014-Sep-22 00:32N 46°51' E 031°59'0 0.0
2014-Sep-21 23:32N 46°51' E 031°59'0 0.0
2014-Sep-21 22:32N 46°51' E 031°59'0 0.0
2014-Sep-21 21:32N 46°51' E 031°59'0 0.0
2014-Sep-21 20:32N 46°51' E 031°59'0 0.0
2014-Sep-21 19:32N 46°51' E 031°59'0 0.0
2014-Sep-21 18:32N 46°51' E 031°59'  
Track history (hours):
 
Tides and Currents Weather Stations Pressure Air Temp Water Temp Dewpoint Dewpoint Depression Visibility Wind Speed Wind Dir Waves Ship Positions

Tur

Last reported at 2014-Oct-01 17:33 UTC. Time now 2014-Oct-01 18:29 UTC.
Position N 46°51' E 031°59'.

Length 35 m.

Type: Tug. MMSI: 272064600.

Date/timePositionNaut miles runAvg speedWind from/ knotsBaromVisibWave heightAir tempDewpointWater temp
2014-Oct-01 17:33N 46°51' E 031°59'0 0.0
2014-Oct-01 16:32N 46°51' E 031°59'0 0.0
2014-Oct-01 15:32N 46°51' E 031°59'0 0.0
2014-Oct-01 14:32N 46°51' E 031°59'0 0.0
2014-Oct-01 13:32N 46°51' E 031°59'0 0.0
2014-Oct-01 12:32N 46°51' E 031°59'0 0.0
2014-Oct-01 11:32N 46°51' E 031°59'1 1.3
2014-Oct-01 10:33N 46°50' E 031°57'1 1.3
2014-Oct-01 09:33N 46°51' E 031°59'0 0.0
2014-Oct-01 08:33N 46°51' E 031°59'0 0.0
2014-Oct-01 07:33N 46°51' E 031°59'0 0.0
2014-Oct-01 06:33N 46°51' E 031°59'0 0.0
2014-Oct-01 05:33N 46°51' E 031°59'2 1.8
2014-Oct-01 04:33N 46°50' E 031°57'0 0.5
2014-Oct-01 03:33N 46°50' E 031°57'1 1.3
2014-Oct-01 02:33N 46°51' E 031°59'0 0.0
2014-Oct-01 01:33N 46°51' E 031°59'0 0.0
2014-Oct-01 00:33N 46°51' E 031°59'0 0.0
2014-Sep-30 23:33N 46°51' E 031°59'0 0.0
2014-Sep-30 22:33N 46°51' E 031°59'0 0.0
2014-Sep-30 21:33N 46°51' E 031°59'0 0.0
2014-Sep-30 20:33N 46°51' E 031°59'0 0.0
2014-Sep-30 19:33N 46°51' E 031°59'0 0.0
2014-Sep-30 18:33N 46°51' E 031°59'0 0.0
2014-Sep-30 17:30N 46°51' E 031°59'0 0.0
2014-Sep-30 16:33N 46°51' E 031°59'0 0.0
2014-Sep-30 15:33N 46°51' E 031°59'0 0.0
2014-Sep-30 14:33N 46°51' E 031°59'0 0.0
2014-Sep-30 13:33N 46°51' E 031°59'2 1.6
2014-Sep-30 12:33N 46°51' E 031°57'0 0.1
2014-Sep-30 11:33N 46°50' E 031°56'2 1.7
2014-Sep-30 10:32N 46°51' E 031°59'0 0.0
2014-Sep-30 09:32N 46°51' E 031°59'0 0.0
2014-Sep-30 08:32N 46°51' E 031°59'0 0.0
2014-Sep-30 07:29N 46°51' E 031°59'0 0.0
2014-Sep-30 06:32N 46°51' E 031°59'0 0.2
2014-Sep-30 04:31N 46°51' E 031°59'0 0.0
2014-Sep-30 03:31N 46°51' E 031°59'0 0.0
2014-Sep-30 02:28N 46°51' E 031°59'0 0.0
2014-Sep-30 01:31N 46°51' E 031°59'0 0.0
2014-Sep-30 00:31N 46°51' E 031°59'0 0.0
2014-Sep-29 23:31N 46°51' E 031°59'0 0.0
2014-Sep-29 22:31N 46°51' E 031°59'0 0.0
2014-Sep-29 21:31N 46°51' E 031°59'0 0.0
2014-Sep-29 20:31N 46°51' E 031°59'0 0.2
2014-Sep-29 19:33N 46°51' E 031°59'0 0.2
2014-Sep-29 18:32N 46°51' E 031°59'0 0.0
2014-Sep-29 17:32N 46°51' E 031°59'0 0.0
2014-Sep-29 16:32N 46°51' E 031°59'0 0.0
2014-Sep-29 15:32N 46°51' E 031°59'0 0.4
2014-Sep-29 14:32N 46°51' E 031°59'0 0.0
2014-Sep-29 13:32N 46°51' E 031°59'0 0.0
2014-Sep-29 12:32N 46°51' E 031°59'0 0.0
2014-Sep-29 11:32N 46°51' E 031°59'0 0.0
2014-Sep-29 10:32N 46°51' E 031°59'0 0.0
2014-Sep-29 09:32N 46°51' E 031°59'0 0.0
2014-Sep-29 08:29N 46°51' E 031°59'0 0.0
2014-Sep-29 07:32N 46°51' E 031°59'0 0.0
2014-Sep-29 06:32N 46°51' E 031°59'0 0.0
2014-Sep-29 05:32N 46°51' E 031°59'0 0.0
2014-Sep-29 04:32N 46°51' E 031°59'0 0.0
2014-Sep-29 03:32N 46°51' E 031°59'0 0.0
2014-Sep-29 02:32N 46°51' E 031°59'0 0.0
2014-Sep-29 01:32N 46°51' E 031°59'0 0.0
2014-Sep-29 00:32N 46°51' E 031°59'0 0.0
2014-Sep-28 23:32N 46°51' E 031°59'0 0.0
2014-Sep-28 22:32N 46°51' E 031°59'0 0.0
2014-Sep-28 21:32N 46°51' E 031°59'0 0.0
2014-Sep-28 20:29N 46°51' E 031°59'0 0.0
2014-Sep-28 19:32N 46°51' E 031°59'0 0.0
2014-Sep-28 18:32N 46°51' E 031°59'0 0.0
2014-Sep-28 17:32N 46°51' E 031°59'0 0.0
2014-Sep-28 16:32N 46°51' E 031°59'0 0.0
2014-Sep-28 15:32N 46°51' E 031°59'0 0.0
2014-Sep-28 14:33N 46°51' E 031°59'1 1.3
2014-Sep-28 13:32N 46°50' E 031°57'1 1.0
2014-Sep-28 12:30N 46°50' E 031°56'1 0.9
2014-Sep-28 11:33N 46°50' E 031°57'1 1.2
2014-Sep-28 10:31N 46°51' E 031°59'0 0.0
2014-Sep-28 09:31N 46°51' E 031°59'0 0.0
2014-Sep-28 08:31N 46°51' E 031°59'0 0.0
2014-Sep-28 07:31N 46°51' E 031°59'0 0.0
2014-Sep-28 06:31N 46°51' E 031°59'0 0.0
2014-Sep-28 05:31N 46°51' E 031°59'0 0.0
2014-Sep-28 04:28N 46°51' E 031°59'0 0.0
2014-Sep-28 03:31N 46°51' E 031°59'0 0.0
2014-Sep-28 02:31N 46°51' E 031°59'0 0.0
2014-Sep-28 01:31N 46°51' E 031°59'0 0.0
2014-Sep-28 00:31N 46°51' E 031°59'0 0.0
2014-Sep-27 23:28N 46°51' E 031°59'0 0.0
2014-Sep-27 22:31N 46°51' E 031°59'0 0.0
2014-Sep-27 21:31N 46°51' E 031°59'0 0.0
2014-Sep-27 20:31N 46°51' E 031°59'0 0.3
2014-Sep-27 19:33N 46°51' E 031°59'0 0.3
2014-Sep-27 18:32N 46°51' E 031°59'0 0.0
2014-Sep-27 17:32N 46°51' E 031°59'0 0.0
2014-Sep-27 16:32N 46°51' E 031°59'0 0.0
2014-Sep-27 15:32N 46°51' E 031°59'0 0.0
2014-Sep-27 14:32N 46°51' E 031°59'0 0.0
2014-Sep-27 13:32N 46°51' E 031°59'0 0.0
2014-Sep-27 12:32N 46°51' E 031°59'0 0.0
2014-Sep-27 11:32N 46°51' E 031°59'0 0.0
2014-Sep-27 10:32N 46°51' E 031°59'0 0.0
2014-Sep-27 09:32N 46°51' E 031°59'0 0.0
2014-Sep-27 08:32N 46°51' E 031°59'0 0.0
2014-Sep-27 07:32N 46°51' E 031°59'0 0.0
2014-Sep-27 06:32N 46°51' E 031°59'0 0.1
2014-Sep-27 05:33N 46°51' E 031°59'0 0.1
2014-Sep-27 04:33N 46°51' E 031°59'0 0.0
2014-Sep-27 03:33N 46°51' E 031°59'0 0.0
2014-Sep-27 02:33N 46°51' E 031°59'0 0.0
2014-Sep-27 01:33N 46°51' E 031°59'0 0.0
2014-Sep-27 00:33N 46°51' E 031°59'0 0.0
2014-Sep-26 23:33N 46°51' E 031°59'0 0.0
2014-Sep-26 22:33N 46°51' E 031°59'0 0.0
2014-Sep-26 21:33N 46°51' E 031°59'0 0.0
2014-Sep-26 20:33N 46°51' E 031°59'0 0.0
2014-Sep-26 19:33N 46°51' E 031°59'0 0.0
2014-Sep-26 18:33N 46°51' E 031°59'0 0.0
2014-Sep-26 16:33N 46°51' E 031°59'0 0.0
2014-Sep-26 15:33N 46°51' E 031°59'0 0.0
2014-Sep-26 14:33N 46°51' E 031°59'0 0.0
2014-Sep-26 13:33N 46°51' E 031°59'1 0.6
2014-Sep-26 12:33N 46°51' E 031°58'1 0.6
2014-Sep-26 11:33N 46°51' E 031°59'0 0.0
2014-Sep-26 10:33N 46°51' E 031°59'0 0.0
2014-Sep-26 09:33N 46°51' E 031°59'0 0.0
2014-Sep-26 08:33N 46°51' E 031°59'0 0.0
2014-Sep-26 07:33N 46°51' E 031°59'0 0.0
2014-Sep-26 06:31N 46°51' E 031°59'0 0.0
2014-Sep-26 05:31N 46°51' E 031°59'0 0.0
2014-Sep-26 04:31N 46°51' E 031°59'0 0.0
2014-Sep-26 03:25N 46°51' E 031°59'0 0.0
2014-Sep-26 02:31N 46°51' E 031°59'0 0.0
2014-Sep-26 01:31N 46°51' E 031°59'0 0.0
2014-Sep-26 00:31N 46°51' E 031°59'0 0.0
2014-Sep-25 23:31N 46°51' E 031°59'0 0.0
2014-Sep-25 22:31N 46°51' E 031°59'0 0.0
2014-Sep-25 21:31N 46°51' E 031°59'0 0.0
2014-Sep-25 20:28N 46°51' E 031°59'0 0.0
2014-Sep-25 19:31N 46°51' E 031°59'0 0.0
2014-Sep-25 18:31N 46°51' E 031°59'0 0.0
2014-Sep-25 17:31N 46°51' E 031°59'0 0.0
2014-Sep-25 16:31N 46°51' E 031°59'0 0.0
2014-Sep-25 15:31N 46°51' E 031°59'0 0.0
2014-Sep-25 14:31N 46°51' E 031°59'0 0.0
2014-Sep-25 13:28N 46°51' E 031°59'0 0.0
2014-Sep-25 12:31N 46°51' E 031°59'0 0.1
2014-Sep-25 11:29N 46°51' E 031°59'0 0.1
2014-Sep-25 10:33N 46°51' E 031°59'0 0.0
2014-Sep-25 09:31N 46°51' E 031°59'0 0.0
2014-Sep-25 08:33N 46°51' E 031°59'0 0.0
2014-Sep-25 07:34N 46°51' E 031°59'0 0.0
2014-Sep-25 06:34N 46°51' E 031°59'0 0.0
2014-Sep-25 05:34N 46°51' E 031°59'0 0.0
2014-Sep-25 04:34N 46°51' E 031°59'0 0.0
2014-Sep-25 03:34N 46°51' E 031°59'0 0.0
2014-Sep-25 02:34N 46°51' E 031°59'0 0.0
2014-Sep-25 01:31N 46°51' E 031°59'0 0.0
2014-Sep-25 00:31N 46°51' E 031°59'0 0.0
2014-Sep-24 23:31N 46°51' E 031°59'0 0.0
2014-Sep-24 22:31N 46°51' E 031°59'0 0.0
2014-Sep-24 21:31N 46°51' E 031°59'0 0.0
2014-Sep-24 20:31N 46°51' E 031°59'0 0.0
2014-Sep-24 19:31N 46°51' E 031°59'0 0.0
2014-Sep-24 18:31N 46°51' E 031°59'0 0.0
2014-Sep-24 17:31N 46°51' E 031°59'0 0.0
2014-Sep-24 16:31N 46°51' E 031°59'0 0.0
2014-Sep-24 15:31N 46°51' E 031°59'0 0.0
2014-Sep-24 14:31N 46°51' E 031°59'0 0.0
2014-Sep-24 13:31N 46°51' E 031°59'0 0.0
2014-Sep-24 12:31N 46°51' E 031°59'0 0.0
2014-Sep-24 11:31N 46°51' E 031°59'0 0.0
2014-Sep-24 10:31N 46°51' E 031°59'0 0.0
2014-Sep-24 09:31N 46°51' E 031°59'0 0.0
2014-Sep-24 08:31N 46°51' E 031°59'0 0.0
2014-Sep-24 07:31N 46°51' E 031°59'0 0.0
2014-Sep-24 06:31N 46°51' E 031°59'0 0.0
2014-Sep-24 05:31N 46°51' E 031°59'0 0.0
2014-Sep-24 04:31N 46°51' E 031°59'0 0.0
2014-Sep-24 03:31N 46°51' E 031°59'0 0.0
2014-Sep-24 02:31N 46°51' E 031°59'0 0.0
2014-Sep-24 01:28N 46°51' E 031°59'0 0.0
2014-Sep-24 00:31N 46°51' E 031°59'0 0.0
2014-Sep-23 23:31N 46°51' E 031°59'0 0.0
2014-Sep-23 22:31N 46°51' E 031°59'0 0.0
2014-Sep-23 21:31N 46°51' E 031°59'0 0.0
2014-Sep-23 20:31N 46°51' E 031°59'0 0.0
2014-Sep-23 19:31N 46°51' E 031°59'0 0.0
2014-Sep-23 18:31N 46°51' E 031°59'0 0.0
2014-Sep-23 17:31N 46°51' E 031°59'0 0.0
2014-Sep-23 16:31N 46°51' E 031°59'2 1.9
2014-Sep-23 15:33N 46°50' E 031°56'0 0.2
2014-Sep-23 14:18N 46°50' E 031°56'2 2.8
2014-Sep-23 13:33N 46°51' E 031°59'0 0.1
2014-Sep-23 12:31N 46°51' E 031°59'0 0.0
2014-Sep-23 11:28N 46°51' E 031°59'1 0.9
2014-Sep-23 10:33N 46°51' E 031°58'1 1.0
2014-Sep-23 09:33N 46°50' E 031°57'1 1.1
2014-Sep-23 08:33N 46°51' E 031°59'0 0.0
2014-Sep-23 07:33N 46°51' E 031°59'0 0.0
2014-Sep-23 06:33N 46°51' E 031°59'0 0.0
2014-Sep-23 05:33N 46°51' E 031°59'0 0.0
2014-Sep-23 04:33N 46°51' E 031°59'0 0.0
2014-Sep-23 03:33N 46°51' E 031°59'0 0.0
2014-Sep-23 02:33N 46°51' E 031°59'0 0.0
2014-Sep-22 13:21N 46°51' E 031°59'0 0.0
2014-Sep-22 12:33N 46°51' E 031°59'0 0.0
2014-Sep-22 11:33N 46°51' E 031°59'0 0.0
2014-Sep-22 10:33N 46°51' E 031°59'0 0.0
2014-Sep-22 09:33N 46°51' E 031°59'0 0.0
2014-Sep-22 08:33N 46°51' E 031°59'0 0.0
2014-Sep-22 07:33N 46°51' E 031°59'0 0.0
2014-Sep-22 06:31N 46°51' E 031°59'1 1.4
2014-Sep-22 05:33N 46°50' E 031°57'1 0.8
2014-Sep-22 04:33N 46°51' E 031°57'1 0.9
2014-Sep-22 03:32N 46°51' E 031°59'0 0.0
2014-Sep-22 02:32N 46°51' E 031°59'0 0.0
2014-Sep-22 01:32N 46°51' E 031°59'0 0.0
2014-Sep-22 00:32N 46°51' E 031°59'0 0.0
2014-Sep-21 23:32N 46°51' E 031°59'0 0.0
2014-Sep-21 22:32N 46°51' E 031°59'0 0.0
2014-Sep-21 21:32N 46°51' E 031°59'0 0.0
2014-Sep-21 20:32N 46°51' E 031°59'0 0.0
2014-Sep-21 19:32N 46°51' E 031°59'0 0.0
2014-Sep-21 18:32N 46°51' E 031°59'  

Dump ship's entire track history